createdAt,value
2019-02-27T00:01:07.316Z,7.19
2019-02-27T00:03:39.303Z,7.16
2019-02-27T00:06:09.651Z,7.14
2019-02-27T00:08:40.242Z,7.02
2019-02-27T00:11:12.385Z,6.87
2019-02-27T00:13:42.884Z,6.96
2019-02-27T00:16:13.254Z,7.01
2019-02-27T00:18:43.609Z,7.05
2019-02-27T00:21:13.984Z,7.04
2019-02-27T00:23:44.279Z,7.12
2019-02-27T00:26:15.653Z,7.08
2019-02-27T00:28:46.011Z,6.95
2019-02-27T00:31:16.411Z,6.84
2019-02-27T00:33:46.761Z,6.62
2019-02-27T00:36:17.107Z,6.71
2019-02-27T00:38:47.552Z,6.86
2019-02-27T00:41:17.858Z,6.91
2019-02-27T00:43:48.158Z,6.47
2019-02-27T00:46:18.447Z,6.54
2019-02-27T00:48:48.731Z,6.72
2019-02-27T00:51:19.017Z,6.70
2019-02-27T00:53:49.316Z,6.88
2019-02-27T00:56:19.618Z,6.90
2019-02-27T00:58:49.915Z,6.79
2019-02-27T01:01:20.213Z,6.75
2019-02-27T01:03:50.522Z,6.76
2019-02-27T01:06:20.815Z,6.67
2019-02-27T01:08:51.095Z,6.54
2019-02-27T01:11:21.367Z,6.59
2019-02-27T01:13:51.683Z,6.61
2019-02-27T01:16:21.964Z,6.64
2019-02-27T01:18:52.285Z,6.58
2019-02-27T01:21:22.611Z,6.45
2019-02-27T01:23:52.935Z,6.49
2019-02-27T01:26:23.211Z,6.44
2019-02-27T01:28:53.502Z,6.56
2019-02-27T01:31:24.017Z,6.64
2019-02-27T01:33:54.765Z,6.52
2019-02-27T01:36:25.311Z,6.61
2019-02-27T01:38:55.639Z,6.62
2019-02-27T01:41:25.912Z,6.58
2019-02-27T01:43:56.219Z,6.46
2019-02-27T01:46:27.758Z,6.40
2019-02-27T01:48:58.765Z,6.33
2019-02-27T01:51:29.055Z,6.21
2019-02-27T01:53:59.360Z,6.22
2019-02-27T01:56:29.764Z,6.16
2019-02-27T01:59:00.034Z,6.16
2019-02-27T02:01:30.865Z,6.24
2019-02-27T02:04:02.250Z,6.27
2019-02-27T02:06:33.021Z,6.32
2019-02-27T02:09:12.608Z,6.36
2019-02-27T02:11:42.944Z,6.38
2019-02-27T02:14:16.550Z,6.29
2019-02-27T02:16:51.774Z,6.27
2019-02-27T02:19:40.355Z,6.27
2019-02-27T02:22:19.546Z,6.24
2019-02-27T02:25:17.176Z,6.20
2019-02-27T02:28:12.142Z,6.00
2019-02-27T02:31:05.404Z,6.16
2019-02-27T02:33:44.701Z,6.27
2019-02-27T02:36:26.363Z,6.17
2019-02-27T02:39:17.641Z,6.07
2019-02-27T02:41:51.953Z,6.01
2019-02-27T02:44:40.767Z,5.85
2019-02-27T02:47:31.018Z,5.86
2019-02-27T02:50:28.455Z,5.84
2019-02-27T02:53:25.012Z,5.83
2019-02-27T02:56:12.253Z,5.67
2019-02-27T02:59:02.384Z,5.85
2019-02-27T03:01:38.792Z,5.74
2019-02-27T03:04:17.919Z,5.72
2019-02-27T03:06:59.745Z,5.78
2019-02-27T03:09:45.483Z,5.98
2019-02-27T03:12:33.365Z,6.00
2019-02-27T03:15:21.532Z,6.00
2019-02-27T03:18:00.687Z,6.09
2019-02-27T03:20:53.107Z,6.20
2019-02-27T03:23:29.245Z,6.11
2019-02-27T03:26:16.970Z,6.19
2019-02-27T03:29:01.968Z,6.15
2019-02-27T03:31:44.274Z,6.19
2019-02-27T03:34:51.484Z,6.20
2019-02-27T03:37:31.410Z,6.18
2019-02-27T03:40:24.485Z,6.27
2019-02-27T03:43:18.934Z,6.24
2019-02-27T03:46:07.335Z,6.27
2019-02-27T03:48:46.997Z,6.20
2019-02-27T03:51:43.393Z,6.02
2019-02-27T03:54:21.311Z,5.85
2019-02-27T03:57:04.434Z,5.67
2019-02-27T04:00:11.222Z,5.57
2019-02-27T04:02:47.477Z,5.69
2019-02-27T04:05:26.821Z,5.66
2019-02-27T04:08:16.969Z,5.69
2019-02-27T04:10:47.250Z,5.73
2019-02-27T04:13:17.560Z,5.76
2019-02-27T04:15:53.316Z,5.63
2019-02-27T04:18:19.049Z,5.69
2019-02-27T04:20:50.859Z,5.74
2019-02-27T04:23:21.292Z,5.71
2019-02-27T04:25:51.636Z,5.84
2019-02-27T04:28:21.952Z,5.78
2019-02-27T04:30:52.248Z,5.79
2019-02-27T04:33:23.316Z,5.67
2019-02-27T04:35:54.546Z,5.72
2019-02-27T04:38:25.065Z,5.65
2019-02-27T04:40:56.801Z,5.56
2019-02-27T04:43:27.149Z,5.48
2019-02-27T04:45:57.429Z,5.46
2019-02-27T04:48:29.906Z,5.36
2019-02-27T04:50:59.727Z,5.38
2019-02-27T04:53:32.012Z,5.49
2019-02-27T04:56:02.095Z,5.44
2019-02-27T04:58:32.394Z,5.50
2019-02-27T05:01:02.723Z,5.46
2019-02-27T05:03:33.102Z,5.48
2019-02-27T05:06:03.680Z,5.45
2019-02-27T05:08:34.039Z,5.45
2019-02-27T05:11:04.397Z,5.41
2019-02-27T05:13:34.679Z,5.51
2019-02-27T05:16:04.980Z,5.54
2019-02-27T05:18:35.709Z,5.63
2019-02-27T05:21:06.006Z,5.65
2019-02-27T05:23:36.326Z,5.68
2019-02-27T05:26:06.735Z,5.69
2019-02-27T05:28:37.106Z,5.74
2019-02-27T05:31:07.467Z,5.72
2019-02-27T05:33:39.872Z,5.56
2019-02-27T05:36:09.882Z,5.43
2019-02-27T05:38:41.000Z,5.24
2019-02-27T05:41:12.300Z,4.96
2019-02-27T05:43:47.597Z,5.13
2019-02-27T05:46:15.196Z,5.06
2019-02-27T05:48:45.703Z,5.03
2019-02-27T05:51:16.018Z,5.11
2019-02-27T05:53:46.701Z,4.95
2019-02-27T05:56:16.990Z,5.16
2019-02-27T05:58:47.271Z,5.25
2019-02-27T06:01:17.577Z,5.32
2019-02-27T06:03:49.414Z,5.44
2019-02-27T06:06:20.131Z,4.94
2019-02-27T06:08:54.221Z,3.92
2019-02-27T06:11:27.047Z,3.36
2019-02-27T06:13:58.391Z,3.09
2019-02-27T06:16:28.914Z,3.23
2019-02-27T06:18:59.234Z,2.90
2019-02-27T06:21:30.525Z,3.24
2019-02-27T06:24:00.835Z,3.91
2019-02-27T06:26:32.461Z,4.41
2019-02-27T06:29:03.239Z,4.67
2019-02-27T06:31:36.506Z,4.85
2019-02-27T06:34:05.522Z,5.08
2019-02-27T06:36:35.850Z,5.15
2019-02-27T06:39:08.673Z,5.25
2019-02-27T06:41:39.927Z,5.43
2019-02-27T06:44:10.387Z,5.45
2019-02-27T06:46:40.688Z,5.55
2019-02-27T06:49:11.661Z,5.72
2019-02-27T06:51:41.949Z,5.82
2019-02-27T06:54:12.240Z,5.98
2019-02-27T06:56:42.568Z,6.08
2019-02-27T06:59:12.881Z,5.98
2019-02-27T07:01:45.055Z,6.12
2019-02-27T07:04:15.183Z,6.23
2019-02-27T07:06:45.551Z,6.01
2019-02-27T07:09:15.875Z,5.90
2019-02-27T07:11:48.677Z,6.02
2019-02-27T07:14:18.173Z,6.15
2019-02-27T07:16:48.434Z,6.17
2019-02-27T07:19:18.706Z,6.37
2019-02-27T07:21:49.004Z,6.58
2019-02-27T07:24:19.304Z,6.86
2019-02-27T07:26:50.131Z,6.88
2019-02-27T07:29:21.960Z,6.55
2019-02-27T07:31:52.995Z,7.04
2019-02-27T07:34:23.274Z,6.93
2019-02-27T07:36:53.575Z,7.41
2019-02-27T07:39:23.873Z,7.66
2019-02-27T07:41:54.262Z,7.70
2019-02-27T07:44:24.562Z,7.72
2019-02-27T07:46:57.248Z,8.22
2019-02-27T07:49:28.352Z,8.90
2019-02-27T07:51:58.985Z,8.86
2019-02-27T07:54:29.691Z,8.92
2019-02-27T07:57:01.075Z,8.80
2019-02-27T07:59:31.382Z,8.53
2019-02-27T08:02:03.024Z,8.48
2019-02-27T08:04:33.513Z,8.42
2019-02-27T08:07:03.826Z,8.40
2019-02-27T08:09:34.151Z,8.35
2019-02-27T08:12:04.456Z,8.08
2019-02-27T08:14:37.112Z,8.74
2019-02-27T08:17:16.968Z,8.65
2019-02-27T08:19:39.065Z,8.83
2019-02-27T08:22:09.371Z,8.75
2019-02-27T08:24:39.640Z,8.79
2019-02-27T08:27:10.392Z,9.04
2019-02-27T08:29:40.930Z,9.08
2019-02-27T08:32:11.247Z,9.32
2019-02-27T08:34:41.529Z,9.06
2019-02-27T08:37:12.348Z,9.68
2019-02-27T08:39:42.687Z,10.21
2019-02-27T08:42:12.980Z,10.56
2019-02-27T08:44:45.783Z,10.59
2019-02-27T08:47:15.390Z,11.23
2019-02-27T08:49:45.689Z,11.50
2019-02-27T08:52:16.382Z,12.16
2019-02-27T08:54:46.853Z,12.14
2019-02-27T08:57:18.468Z,12.15
2019-02-27T08:59:48.781Z,11.86
2019-02-27T09:02:19.128Z,10.98
2019-02-27T09:04:49.426Z,10.07
2019-02-27T09:07:19.935Z,9.45
2019-02-27T09:09:51.632Z,9.27
2019-02-27T09:12:22.245Z,9.34
2019-02-27T09:14:52.541Z,9.16
2019-02-27T09:17:26.909Z,8.97
2019-02-27T09:19:55.901Z,9.04
2019-02-27T09:22:26.457Z,9.07
2019-02-27T09:24:57.239Z,8.65
2019-02-27T09:27:27.626Z,8.60
2019-02-27T09:29:58.183Z,8.33
2019-02-27T09:32:28.464Z,7.92
2019-02-27T09:34:59.670Z,7.96
2019-02-27T09:37:30.547Z,8.02
2019-02-27T09:40:04.507Z,7.98
2019-02-27T09:42:34.403Z,8.15
2019-02-27T09:45:05.521Z,7.76
2019-02-27T09:47:35.914Z,7.95
2019-02-27T09:50:06.687Z,7.65
2019-02-27T09:52:37.003Z,7.59
2019-02-27T09:55:07.326Z,7.31
2019-02-27T09:57:37.628Z,7.15
2019-02-27T10:00:27.688Z,7.17
2019-02-27T10:02:58.297Z,7.48
2019-02-27T10:05:28.663Z,7.68
2019-02-27T10:07:58.967Z,7.74
2019-02-27T10:10:29.353Z,7.67
2019-02-27T10:12:59.935Z,7.61
2019-02-27T10:15:30.513Z,7.66
2019-02-27T10:18:01.013Z,7.64
2019-02-27T10:20:31.409Z,7.72
2019-02-27T10:23:01.708Z,7.66
2019-02-27T10:25:33.101Z,8.12
2019-02-27T10:28:04.683Z,8.11
2019-02-27T10:30:35.162Z,8.01
2019-02-27T10:33:05.812Z,7.97
2019-02-27T10:35:36.130Z,7.86
2019-02-27T10:38:07.376Z,7.70
2019-02-27T10:40:37.682Z,7.87
2019-02-27T10:43:07.984Z,8.14
2019-02-27T10:45:38.308Z,8.22
2019-02-27T10:48:08.681Z,8.19
2019-02-27T10:50:39.058Z,8.13
2019-02-27T10:53:09.371Z,8.11
2019-02-27T10:55:39.701Z,8.25
2019-02-27T10:58:12.913Z,8.39
2019-02-27T11:00:43.785Z,8.50
2019-02-27T11:03:14.900Z,8.27
2019-02-27T11:05:45.223Z,8.15
2019-02-27T11:08:15.814Z,8.17
2019-02-27T11:10:46.117Z,8.22
2019-02-27T11:13:16.618Z,8.41
2019-02-27T11:15:46.907Z,8.69
2019-02-27T11:18:17.244Z,8.81
2019-02-27T11:20:47.540Z,8.87
2019-02-27T11:23:17.835Z,9.06
2019-02-27T11:25:48.136Z,8.99
2019-02-27T11:28:18.502Z,9.14
2019-02-27T11:30:51.058Z,9.13
2019-02-27T11:33:25.627Z,9.30
2019-02-27T11:35:53.527Z,9.36
2019-02-27T11:38:24.807Z,9.69
2019-02-27T11:40:55.844Z,9.68
2019-02-27T11:43:26.189Z,9.70
2019-02-27T11:45:58.003Z,9.54
2019-02-27T11:48:28.506Z,9.66
2019-02-27T11:50:58.955Z,9.93
2019-02-27T11:53:29.425Z,10.10
2019-02-27T11:55:59.730Z,10.20
2019-02-27T11:58:30.095Z,10.21
2019-02-27T12:01:00.406Z,10.07
2019-02-27T12:03:30.691Z,9.86
2019-02-27T12:06:01.053Z,9.82
2019-02-27T12:08:31.367Z,9.87
2019-02-27T12:11:01.669Z,9.77
2019-02-27T12:13:32.299Z,9.96
2019-02-27T12:16:05.108Z,10.04
2019-02-27T12:18:35.426Z,10.16
2019-02-27T12:21:05.738Z,10.23
2019-02-27T12:23:36.049Z,10.47
2019-02-27T12:26:06.354Z,10.64
2019-02-27T12:28:36.681Z,10.70
2019-02-27T12:31:08.181Z,10.55
2019-02-27T12:33:38.998Z,10.75
2019-02-27T12:36:09.372Z,10.75
2019-02-27T12:38:42.319Z,10.85
2019-02-27T12:41:11.700Z,10.79
2019-02-27T12:43:42.101Z,10.86
2019-02-27T12:46:12.407Z,10.91
2019-02-27T12:48:46.145Z,10.99
2019-02-27T12:51:14.717Z,11.08
2019-02-27T12:53:45.017Z,11.15
2019-02-27T12:56:15.309Z,11.31
2019-02-27T12:58:45.722Z,11.27
2019-02-27T13:01:16.952Z,11.30
2019-02-27T13:03:47.341Z,11.38
2019-02-27T13:06:17.763Z,11.37
2019-02-27T13:08:52.627Z,11.46
2019-02-27T13:11:20.469Z,11.56
2019-02-27T13:13:50.781Z,11.56
2019-02-27T13:16:21.261Z,11.51
2019-02-27T13:18:51.566Z,11.35
2019-02-27T13:21:21.956Z,11.24
2019-02-27T13:23:55.675Z,11.22
2019-02-27T13:26:24.595Z,11.18
2019-02-27T13:28:55.209Z,11.34
2019-02-27T13:31:26.948Z,11.55
2019-02-27T13:33:57.395Z,11.54
2019-02-27T13:36:28.048Z,11.53
2019-02-27T13:38:59.367Z,11.68
2019-02-27T13:41:29.935Z,11.65
2019-02-27T13:44:01.393Z,11.69
2019-02-27T13:46:32.521Z,11.64
2019-02-27T13:49:02.868Z,11.65
2019-02-27T13:51:33.865Z,11.66
2019-02-27T13:54:05.281Z,11.66
2019-02-27T13:56:35.583Z,11.72
2019-02-27T13:59:07.529Z,11.80
2019-02-27T14:01:38.121Z,11.83
2019-02-27T14:04:08.425Z,11.81
2019-02-27T14:06:42.840Z,11.78
2019-02-27T14:09:10.740Z,11.86
2019-02-27T14:11:42.260Z,11.94
2019-02-27T14:14:15.151Z,11.91
2019-02-27T14:16:44.932Z,11.89
2019-02-27T14:19:15.904Z,11.93
2019-02-27T14:21:46.273Z,11.96
2019-02-27T14:24:20.319Z,11.99
2019-02-27T14:26:50.025Z,12.05
2019-02-27T14:29:20.354Z,12.08
2019-02-27T14:31:51.058Z,12.11
2019-02-27T14:34:21.353Z,12.09
2019-02-27T14:36:52.336Z,12.12
2019-02-27T14:39:22.679Z,12.16
2019-02-27T14:41:53.009Z,12.17
2019-02-27T14:44:24.539Z,12.21
2019-02-27T14:46:57.845Z,12.20
2019-02-27T14:49:28.173Z,12.21
2019-02-27T14:51:58.539Z,12.21
2019-02-27T14:54:29.096Z,12.24
2019-02-27T14:57:01.131Z,12.22
2019-02-27T14:59:32.972Z,12.19
2019-02-27T15:02:03.342Z,12.15
2019-02-27T15:04:33.745Z,12.15
2019-02-27T15:07:05.224Z,12.11
2019-02-27T15:09:36.403Z,12.10
2019-02-27T15:12:07.428Z,12.05
2019-02-27T15:14:37.762Z,12.04
2019-02-27T15:17:08.080Z,11.99
2019-02-27T15:19:38.385Z,11.97
2019-02-27T15:22:09.002Z,11.90
2019-02-27T15:24:39.858Z,11.94
2019-02-27T15:27:10.193Z,11.88
2019-02-27T15:29:40.579Z,11.85
2019-02-27T15:32:10.913Z,11.83
2019-02-27T15:34:42.749Z,11.72
2019-02-27T15:37:13.308Z,11.68
2019-02-27T15:39:43.813Z,11.60
2019-02-27T15:42:16.102Z,11.56
2019-02-27T15:44:46.800Z,11.51
2019-02-27T15:47:17.248Z,11.40
2019-02-27T15:49:48.818Z,11.40
2019-02-27T15:52:20.117Z,11.36
2019-02-27T15:54:50.506Z,11.31
2019-02-27T15:57:20.834Z,11.27
2019-02-27T15:59:51.593Z,11.20
2019-02-27T16:02:22.058Z,11.21
2019-02-27T16:04:55.502Z,11.08
2019-02-27T16:07:24.502Z,10.99
2019-02-27T16:09:55.570Z,10.91
2019-02-27T16:12:26.519Z,10.88
2019-02-27T16:14:58.281Z,10.87
2019-02-27T16:17:31.948Z,10.76
2019-02-27T16:20:02.284Z,10.75
2019-02-27T16:22:33.758Z,10.66
2019-02-27T16:25:06.115Z,10.64
2019-02-27T16:27:38.581Z,10.45
2019-02-27T16:30:12.033Z,10.41
2019-02-27T16:32:47.957Z,10.44
2019-02-27T16:35:16.326Z,10.44
2019-02-27T16:37:46.775Z,10.35
2019-02-27T16:40:22.241Z,10.24
2019-02-27T16:42:52.694Z,10.15
2019-02-27T16:45:36.666Z,10.13
2019-02-27T16:48:05.943Z,10.04
2019-02-27T16:50:36.608Z,10.22
2019-02-27T16:53:07.074Z,10.14
2019-02-27T16:55:39.500Z,10.26
2019-02-27T16:58:10.588Z,10.26
2019-02-27T17:00:42.278Z,10.16
2019-02-27T17:03:14.023Z,10.19
2019-02-27T17:05:44.590Z,10.04
2019-02-27T17:08:15.097Z,9.91
2019-02-27T17:10:45.710Z,10.08
2019-02-27T17:13:17.884Z,9.93
2019-02-27T17:15:48.539Z,9.98
2019-02-27T17:18:19.141Z,9.92
2019-02-27T17:20:49.538Z,9.89
2019-02-27T17:23:19.852Z,9.81
2019-02-27T17:25:50.247Z,9.77
2019-02-27T17:28:20.596Z,9.81
2019-02-27T17:30:51.389Z,9.99
2019-02-27T17:33:21.713Z,9.98
2019-02-27T17:35:53.173Z,9.83
2019-02-27T17:38:25.172Z,9.81
2019-02-27T17:40:55.899Z,9.80
2019-02-27T17:43:29.533Z,9.89
2019-02-27T17:46:00.831Z,9.62
2019-02-27T17:48:31.797Z,9.52
2019-02-27T17:51:05.750Z,9.57
2019-02-27T17:53:34.797Z,9.47
2019-02-27T17:56:05.191Z,9.49
2019-02-27T17:58:36.262Z,9.78
2019-02-27T18:01:10.905Z,9.93
2019-02-27T18:03:44.006Z,9.90
2019-02-27T18:06:15.246Z,9.75
2019-02-27T18:08:49.499Z,9.62
2019-02-27T18:11:18.096Z,10.13
2019-02-27T18:13:48.496Z,10.61
2019-02-27T18:16:19.778Z,10.31
2019-02-27T18:18:50.154Z,10.19
2019-02-27T18:21:20.556Z,9.94
2019-02-27T18:23:50.948Z,9.68
2019-02-27T18:26:21.254Z,9.47
2019-02-27T18:28:52.521Z,9.45
2019-02-27T18:31:26.609Z,9.26
2019-02-27T18:33:55.299Z,9.18
2019-02-27T18:36:25.754Z,9.16
2019-02-27T18:39:01.670Z,9.08
2019-02-27T18:41:29.476Z,9.04
2019-02-27T18:44:01.180Z,9.20
2019-02-27T18:46:32.284Z,9.08
2019-02-27T18:49:03.203Z,9.09
2019-02-27T18:51:34.055Z,9.07
2019-02-27T18:54:04.611Z,9.09
2019-02-27T18:56:36.823Z,9.11
2019-02-27T18:59:08.102Z,8.94
2019-02-27T19:01:41.392Z,8.95
2019-02-27T19:04:11.604Z,9.00
2019-02-27T19:06:45.788Z,9.11
2019-02-27T19:09:14.662Z,9.16
2019-02-27T19:11:47.470Z,9.33
2019-02-27T19:14:19.372Z,9.18
2019-02-27T19:16:52.128Z,9.12
2019-02-27T19:19:22.221Z,9.05
2019-02-27T19:21:52.891Z,9.00
2019-02-27T19:24:27.606Z,9.14
2019-02-27T19:26:59.566Z,9.33
2019-02-27T19:29:31.902Z,9.27
2019-02-27T19:32:02.956Z,9.35
2019-02-27T19:34:33.936Z,9.39
2019-02-27T19:37:06.010Z,9.57
2019-02-27T19:39:37.300Z,9.42
2019-02-27T19:42:10.333Z,9.51
2019-02-27T19:44:40.196Z,9.52
2019-02-27T19:47:10.956Z,9.33
2019-02-27T19:49:41.469Z,9.41
2019-02-27T19:52:13.574Z,9.38
2019-02-27T19:54:44.098Z,9.39
2019-02-27T19:57:14.951Z,9.36
2019-02-27T19:59:45.454Z,9.51
2019-02-27T20:02:15.837Z,9.60
2019-02-27T20:04:47.289Z,9.63
2019-02-27T20:07:17.921Z,9.43
2019-02-27T20:09:51.417Z,9.15
2019-02-27T20:12:23.858Z,9.11
2019-02-27T20:14:58.457Z,9.01
2019-02-27T20:17:33.082Z,8.93
2019-02-27T20:20:05.452Z,8.96
2019-02-27T20:22:36.549Z,9.06
2019-02-27T20:25:18.152Z,8.90
2019-02-27T20:27:48.704Z,9.01
2019-02-27T20:30:22.572Z,9.17
2019-02-27T20:32:53.266Z,9.14
2019-02-27T20:35:23.844Z,9.30
2019-02-27T20:37:54.280Z,9.44
2019-02-27T20:40:24.897Z,9.40
2019-02-27T20:42:55.633Z,9.26
2019-02-27T20:45:26.794Z,9.36
2019-02-27T20:48:01.524Z,9.51
2019-02-27T20:50:45.262Z,9.49
2019-02-27T20:53:15.741Z,9.53
2019-02-27T20:55:47.706Z,9.53
2019-02-27T20:58:18.704Z,9.57
2019-02-27T21:00:49.365Z,9.43
2019-02-27T21:03:26.685Z,9.57
2019-02-27T21:05:54.191Z,9.26
2019-02-27T21:08:26.150Z,9.15
2019-02-27T21:10:56.800Z,9.07
2019-02-27T21:13:28.523Z,9.00
2019-02-27T21:15:58.845Z,8.97
2019-02-27T21:18:32.603Z,8.78
2019-02-27T21:21:05.023Z,9.06
2019-02-27T21:23:35.735Z,8.99
2019-02-27T21:26:07.965Z,8.84
2019-02-27T21:28:38.596Z,9.01
2019-02-27T21:31:09.909Z,9.20
2019-02-27T21:33:42.502Z,8.93
2019-02-27T21:36:12.373Z,8.84
2019-02-27T21:38:42.671Z,8.72
2019-02-27T21:41:12.954Z,8.74
2019-02-27T21:43:43.281Z,8.83
2019-02-27T21:46:13.662Z,9.07
2019-02-27T21:48:44.130Z,9.00
2019-02-27T21:51:14.522Z,9.21
2019-02-27T21:53:45.007Z,9.03
2019-02-27T21:56:18.068Z,9.18
2019-02-27T21:58:47.382Z,9.16
2019-02-27T22:01:19.253Z,9.07
2019-02-27T22:03:49.774Z,9.10
2019-02-27T22:06:21.642Z,8.98
2019-02-27T22:08:52.226Z,8.92
2019-02-27T22:11:24.268Z,8.86
2019-02-27T22:13:55.550Z,8.58
2019-02-27T22:16:29.543Z,8.86
2019-02-27T22:18:58.131Z,8.77
2019-02-27T22:21:31.300Z,8.27
2019-02-27T22:24:02.182Z,8.31
2019-02-27T22:26:34.251Z,8.46
2019-02-27T22:29:07.594Z,8.41
2019-02-27T22:31:40.549Z,8.50
2019-02-27T22:34:10.191Z,8.47
2019-02-27T22:36:40.493Z,8.71
2019-02-27T22:39:10.817Z,8.57
2019-02-27T22:41:42.714Z,8.64
2019-02-27T22:44:13.895Z,8.67
2019-02-27T22:46:44.268Z,8.74
2019-02-27T22:49:14.590Z,8.93
2019-02-27T22:51:48.167Z,8.87
2019-02-27T22:54:16.991Z,8.75
2019-02-27T22:56:51.391Z,8.84
2019-02-27T22:59:19.314Z,8.99
2019-02-27T23:01:50.946Z,8.91
2019-02-27T23:04:21.546Z,8.89
2019-02-27T23:06:51.814Z,8.84
2019-02-27T23:09:25.101Z,8.84
2019-02-27T23:11:54.267Z,8.89
2019-02-27T23:14:24.562Z,8.95
2019-02-27T23:16:54.836Z,9.00
2019-02-27T23:19:26.815Z,8.98
2019-02-27T23:21:58.410Z,8.96
2019-02-27T23:24:28.779Z,8.91
2019-02-27T23:26:59.148Z,8.71
2019-02-27T23:29:29.416Z,8.78
2019-02-27T23:31:59.826Z,8.62
2019-02-27T23:34:30.193Z,8.82
2019-02-27T23:37:01.771Z,8.68
2019-02-27T23:39:32.071Z,8.63
2019-02-27T23:42:02.525Z,8.49
2019-02-27T23:44:38.470Z,8.26
2019-02-27T23:47:05.591Z,8.26
2019-02-27T23:49:39.541Z,8.15
2019-02-27T23:52:08.147Z,7.99
2019-02-27T23:54:38.500Z,8.28
2019-02-27T23:57:08.858Z,7.89
2019-02-27T23:59:39.231Z,8.05
